sensor_id;sensor_type;location;lat;lon;timestamp;pressure;altitude;pressure_sealevel;temperature;humidity
9738;BME280;4908;47.446;13.900;2024-02-21T00:01:03;93728.59;;;1.12;100.00
9738;BME280;4908;47.446;13.900;2024-02-21T00:03:32;93729.38;;;1.13;100.00
9738;BME280;4908;47.446;13.900;2024-02-21T00:05:59;93730.44;;;1.12;100.00
9738;BME280;4908;47.446;13.900;2024-02-21T00:08:26;93729.06;;;0.78;100.00
9738;BME280;4908;47.446;13.900;2024-02-21T00:10:53;93736.31;;;0.73;100.00
9738;BME280;4908;47.446;13.900;2024-02-21T00:13:21;93728.91;;;0.61;100.00
9738;BME280;4908;47.446;13.900;2024-02-21T00:15:48;93725.47;;;0.74;100.00
9738;BME280;4908;47.446;13.900;2024-02-21T00:18:15;93732.19;;;0.80;100.00
9738;BME280;4908;47.446;13.900;2024-02-21T00:20:44;93727.63;;;1.08;100.00
9738;BME280;4908;47.446;13.900;2024-02-21T00:23:11;93723.50;;;1.16;100.00
9738;BME280;4908;47.446;13.900;2024-02-21T00:25:38;93725.88;;;1.04;100.00
9738;BME280;4908;47.446;13.900;2024-02-21T00:28:05;93722.75;;;1.02;100.00
9738;BME280;4908;47.446;13.900;2024-02-21T00:30:32;93719.75;;;0.95;100.00
9738;BME280;4908;47.446;13.900;2024-02-21T00:33:00;93723.31;;;1.12;100.00
9738;BME280;4908;47.446;13.900;2024-02-21T00:35:27;93721.69;;;1.25;100.00
9738;BME280;4908;47.446;13.900;2024-02-21T00:37:55;93726.00;;;1.43;100.00
9738;BME280;4908;47.446;13.900;2024-02-21T00:40:25;93719.91;;;1.34;100.00
9738;BME280;4908;47.446;13.900;2024-02-21T00:42:53;93716.28;;;1.08;100.00
9738;BME280;4908;47.446;13.900;2024-02-21T00:45:21;93719.53;;;1.05;100.00
9738;BME280;4908;47.446;13.900;2024-02-21T00:47:48;93713.16;;;1.06;100.00
9738;BME280;4908;47.446;13.900;2024-02-21T00:50:15;93722.28;;;1.22;100.00
9738;BME280;4908;47.446;13.900;2024-02-21T00:52:43;93710.25;;;1.29;100.00
9738;BME280;4908;47.446;13.900;2024-02-21T00:55:11;93703.94;;;1.17;100.00
9738;BME280;4908;47.446;13.900;2024-02-21T00:57:38;93709.50;;;1.15;100.00
9738;BME280;4908;47.446;13.900;2024-02-21T01:00:06;93706.81;;;1.29;100.00
9738;BME280;4908;47.446;13.900;2024-02-21T01:02:33;93700.81;;;1.15;100.00
9738;BME280;4908;47.446;13.900;2024-02-21T01:05:02;93688.94;;;1.04;100.00
9738;BME280;4908;47.446;13.900;2024-02-21T01:07:29;93694.72;;;0.83;100.00
9738;BME280;4908;47.446;13.900;2024-02-21T01:09:56;93693.50;;;0.89;100.00
9738;BME280;4908;47.446;13.900;2024-02-21T01:12:25;93695.53;;;0.93;100.00
9738;BME280;4908;47.446;13.900;2024-02-21T01:14:52;93690.75;;;0.95;100.00
9738;BME280;4908;47.446;13.900;2024-02-21T01:17:19;93690.16;;;0.98;100.00
9738;BME280;4908;47.446;13.900;2024-02-21T01:19:46;93694.22;;;1.04;100.00
9738;BME280;4908;47.446;13.900;2024-02-21T01:22:13;93693.91;;;1.05;100.00
9738;BME280;4908;47.446;13.900;2024-02-21T01:24:41;93696.56;;;1.05;100.00
9738;BME280;4908;47.446;13.900;2024-02-21T01:27:08;93688.16;;;1.03;100.00
9738;BME280;4908;47.446;13.900;2024-02-21T01:29:37;93686.44;;;0.99;100.00
9738;BME280;4908;47.446;13.900;2024-02-21T01:32:04;93685.91;;;1.10;100.00
9738;BME280;4908;47.446;13.900;2024-02-21T01:34:31;93674.31;;;0.98;100.00
9738;BME280;4908;47.446;13.900;2024-02-21T01:36:58;93665.66;;;0.97;100.00
9738;BME280;4908;47.446;13.900;2024-02-21T01:39:30;93663.69;;;1.03;100.00
9738;BME280;4908;47.446;13.900;2024-02-21T01:41:57;93667.00;;;1.17;100.00
9738;BME280;4908;47.446;13.900;2024-02-21T01:44:25;93668.81;;;1.08;100.00
9738;BME280;4908;47.446;13.900;2024-02-21T01:46:54;93659.00;;;1.22;100.00
9738;BME280;4908;47.446;13.900;2024-02-21T01:49:21;93651.16;;;1.39;100.00
9738;BME280;4908;47.446;13.900;2024-02-21T01:51:49;93657.06;;;1.36;100.00
9738;BME280;4908;47.446;13.900;2024-02-21T01:54:17;93654.06;;;1.29;100.00
9738;BME280;4908;47.446;13.900;2024-02-21T01:56:46;93654.50;;;1.22;100.00
9738;BME280;4908;47.446;13.900;2024-02-21T01:59:15;93652.50;;;1.28;100.00
9738;BME280;4908;47.446;13.900;2024-02-21T02:01:44;93648.03;;;1.28;100.00
9738;BME280;4908;47.446;13.900;2024-02-21T02:04:14;93644.22;;;1.21;100.00
9738;BME280;4908;47.446;13.900;2024-02-21T02:06:42;93637.63;;;1.32;100.00
9738;BME280;4908;47.446;13.900;2024-02-21T02:09:09;93647.47;;;1.18;100.00
9738;BME280;4908;47.446;13.900;2024-02-21T02:11:36;93639.25;;;1.19;100.00
9738;BME280;4908;47.446;13.900;2024-02-21T02:14:03;93632.78;;;1.25;100.00
9738;BME280;4908;47.446;13.900;2024-02-21T02:16:41;93633.41;;;1.22;100.00
9738;BME280;4908;47.446;13.900;2024-02-21T02:19:08;93639.06;;;1.38;100.00
9738;BME280;4908;47.446;13.900;2024-02-21T02:21:42;93632.38;;;1.32;100.00
9738;BME280;4908;47.446;13.900;2024-02-21T02:24:13;93631.75;;;1.35;100.00
9738;BME280;4908;47.446;13.900;2024-02-21T02:26:40;93632.31;;;1.23;100.00
9738;BME280;4908;47.446;13.900;2024-02-21T02:29:08;93628.28;;;1.26;100.00
9738;BME280;4908;47.446;13.900;2024-02-21T02:31:35;93627.38;;;1.30;100.00
9738;BME280;4908;47.446;13.900;2024-02-21T02:34:03;93624.22;;;1.20;100.00
9738;BME280;4908;47.446;13.900;2024-02-21T02:36:32;93619.94;;;1.32;100.00
9738;BME280;4908;47.446;13.900;2024-02-21T02:38:59;93610.31;;;1.28;100.00
9738;BME280;4908;47.446;13.900;2024-02-21T02:41:28;93620.25;;;1.31;100.00
9738;BME280;4908;47.446;13.900;2024-02-21T02:43:55;93611.28;;;1.10;100.00
9738;BME280;4908;47.446;13.900;2024-02-21T02:46:22;93608.16;;;1.08;100.00
9738;BME280;4908;47.446;13.900;2024-02-21T02:48:49;93603.09;;;0.89;100.00
9738;BME280;4908;47.446;13.900;2024-02-21T02:51:17;93602.19;;;0.93;100.00
9738;BME280;4908;47.446;13.900;2024-02-21T02:53:44;93606.72;;;1.02;100.00
9738;BME280;4908;47.446;13.900;2024-02-21T02:56:14;93594.88;;;0.90;100.00
9738;BME280;4908;47.446;13.900;2024-02-21T02:58:43;93593.56;;;0.79;100.00
9738;BME280;4908;47.446;13.900;2024-02-21T03:01:11;93586.50;;;0.88;100.00
9738;BME280;4908;47.446;13.900;2024-02-21T03:03:39;93587.28;;;0.89;100.00
9738;BME280;4908;47.446;13.900;2024-02-21T03:06:06;93581.13;;;0.71;100.00
9738;BME280;4908;47.446;13.900;2024-02-21T03:08:33;93579.66;;;0.87;100.00
9738;BME280;4908;47.446;13.900;2024-02-21T03:11:00;93573.63;;;0.87;100.00
9738;BME280;4908;47.446;13.900;2024-02-21T03:13:27;93572.69;;;0.91;100.00
9738;BME280;4908;47.446;13.900;2024-02-21T03:15:56;93568.44;;;1.04;100.00
9738;BME280;4908;47.446;13.900;2024-02-21T03:18:23;93577.41;;;1.03;100.00
9738;BME280;4908;47.446;13.900;2024-02-21T03:20:50;93572.50;;;1.10;100.00
9738;BME280;4908;47.446;13.900;2024-02-21T03:23:17;93572.69;;;0.91;100.00
9738;BME280;4908;47.446;13.900;2024-02-21T03:25:45;93582.28;;;1.10;100.00
9738;BME280;4908;47.446;13.900;2024-02-21T03:28:12;93575.69;;;0.99;100.00
9738;BME280;4908;47.446;13.900;2024-02-21T03:30:39;93579.78;;;1.05;100.00
9738;BME280;4908;47.446;13.900;2024-02-21T03:33:08;93570.84;;;0.92;100.00
9738;BME280;4908;47.446;13.900;2024-02-21T03:35:35;93573.66;;;0.96;100.00
9738;BME280;4908;47.446;13.900;2024-02-21T03:38:03;93576.56;;;0.85;100.00
9738;BME280;4908;47.446;13.900;2024-02-21T03:40:30;93580.81;;;0.95;100.00
9738;BME280;4908;47.446;13.900;2024-02-21T03:42:57;93582.66;;;0.95;100.00
9738;BME280;4908;47.446;13.900;2024-02-21T03:45:24;93581.47;;;1.09;100.00
9738;BME280;4908;47.446;13.900;2024-02-21T03:47:52;93572.69;;;1.14;100.00
9738;BME280;4908;47.446;13.900;2024-02-21T03:50:20;93579.31;;;1.11;100.00
9738;BME280;4908;47.446;13.900;2024-02-21T03:52:47;93581.97;;;1.11;100.00
9738;BME280;4908;47.446;13.900;2024-02-21T03:55:15;93576.13;;;1.23;100.00
9738;BME280;4908;47.446;13.900;2024-02-21T03:57:42;93579.06;;;0.90;100.00
9738;BME280;4908;47.446;13.900;2024-02-21T04:00:10;93580.09;;;1.12;100.00
9738;BME280;4908;47.446;13.900;2024-02-21T04:02:37;93578.03;;;1.00;100.00
9738;BME280;4908;47.446;13.900;2024-02-21T04:05:05;93589.13;;;1.11;100.00
9738;BME280;4908;47.446;13.900;2024-02-21T04:07:38;93583.00;;;1.02;100.00
9738;BME280;4908;47.446;13.900;2024-02-21T04:10:06;93584.13;;;1.09;100.00
9738;BME280;4908;47.446;13.900;2024-02-21T04:12:33;93582.44;;;1.13;100.00
9738;BME280;4908;47.446;13.900;2024-02-21T04:15:00;93578.19;;;1.34;100.00
9738;BME280;4908;47.446;13.900;2024-02-21T04:17:27;93574.81;;;1.34;100.00
9738;BME280;4908;47.446;13.900;2024-02-21T04:20:02;93576.03;;;1.36;100.00
9738;BME280;4908;47.446;13.900;2024-02-21T04:22:30;93572.91;;;1.34;100.00
9738;BME280;4908;47.446;13.900;2024-02-21T04:25:00;93572.34;;;1.46;100.00
9738;BME280;4908;47.446;13.900;2024-02-21T04:27:28;93565.06;;;1.43;100.00
9738;BME280;4908;47.446;13.900;2024-02-21T04:29:55;93576.66;;;1.33;100.00
9738;BME280;4908;47.446;13.900;2024-02-21T04:32:22;93570.94;;;1.40;100.00
9738;BME280;4908;47.446;13.900;2024-02-21T04:34:50;93576.09;;;1.45;100.00
9738;BME280;4908;47.446;13.900;2024-02-21T04:37:17;93573.47;;;1.14;100.00
9738;BME280;4908;47.446;13.900;2024-02-21T04:39:44;93565.41;;;1.19;100.00
9738;BME280;4908;47.446;13.900;2024-02-21T04:42:13;93569.16;;;1.27;100.00
9738;BME280;4908;47.446;13.900;2024-02-21T04:44:40;93568.44;;;1.35;100.00
9738;BME280;4908;47.446;13.900;2024-02-21T04:47:07;93564.09;;;1.39;100.00
9738;BME280;4908;47.446;13.900;2024-02-21T04:49:34;93558.69;;;1.44;100.00
9738;BME280;4908;47.446;13.900;2024-02-21T04:52:02;93556.75;;;1.27;100.00
9738;BME280;4908;47.446;13.900;2024-02-21T04:54:29;93558.88;;;1.17;100.00
9738;BME280;4908;47.446;13.900;2024-02-21T04:56:56;93549.09;;;1.09;100.00
9738;BME280;4908;47.446;13.900;2024-02-21T04:59:25;93552.31;;;1.06;100.00
9738;BME280;4908;47.446;13.900;2024-02-21T05:01:52;93550.00;;;1.43;100.00
9738;BME280;4908;47.446;13.900;2024-02-21T05:04:19;93541.63;;;1.41;100.00
9738;BME280;4908;47.446;13.900;2024-02-21T05:06:46;93538.66;;;1.43;100.00
9738;BME280;4908;47.446;13.900;2024-02-21T05:09:14;93543.16;;;1.42;100.00
9738;BME280;4908;47.446;13.900;2024-02-21T05:11:41;93548.91;;;1.36;100.00
9738;BME280;4908;47.446;13.900;2024-02-21T05:14:08;93554.66;;;1.38;100.00
9738;BME280;4908;47.446;13.900;2024-02-21T05:16:38;93543.00;;;1.39;100.00
9738;BME280;4908;47.446;13.900;2024-02-21T05:19:05;93531.38;;;1.40;100.00
9738;BME280;4908;47.446;13.900;2024-02-21T05:21:33;93535.28;;;1.51;100.00
9738;BME280;4908;47.446;13.900;2024-02-21T05:24:00;93539.81;;;1.59;100.00
9738;BME280;4908;47.446;13.900;2024-02-21T05:26:27;93551.53;;;1.36;100.00
9738;BME280;4908;47.446;13.900;2024-02-21T05:28:54;93549.06;;;1.39;100.00
9738;BME280;4908;47.446;13.900;2024-02-21T05:31:22;93552.59;;;1.35;100.00
9738;BME280;4908;47.446;13.900;2024-02-21T05:33:50;93541.72;;;1.36;100.00
9738;BME280;4908;47.446;13.900;2024-02-21T05:36:17;93546.53;;;1.34;100.00
9738;BME280;4908;47.446;13.900;2024-02-21T05:38:44;93536.19;;;1.38;100.00
9738;BME280;4908;47.446;13.900;2024-02-21T05:41:11;93545.00;;;1.33;100.00
9738;BME280;4908;47.446;13.900;2024-02-21T05:43:38;93542.09;;;1.43;100.00
9738;BME280;4908;47.446;13.900;2024-02-21T05:46:05;93541.72;;;1.28;100.00
9738;BME280;4908;47.446;13.900;2024-02-21T05:48:32;93533.66;;;1.33;100.00
9738;BME280;4908;47.446;13.900;2024-02-21T05:51:03;93528.44;;;1.50;100.00
9738;BME280;4908;47.446;13.900;2024-02-21T05:53:30;93524.59;;;1.64;100.00
9738;BME280;4908;47.446;13.900;2024-02-21T05:55:57;93526.63;;;1.67;100.00
9738;BME280;4908;47.446;13.900;2024-02-21T05:58:24;93524.88;;;1.54;100.00
9738;BME280;4908;47.446;13.900;2024-02-21T06:00:51;93534.75;;;1.40;100.00
9738;BME280;4908;47.446;13.900;2024-02-21T06:03:18;93532.13;;;1.40;100.00
9738;BME280;4908;47.446;13.900;2024-02-21T06:05:45;93542.78;;;1.27;100.00
9738;BME280;4908;47.446;13.900;2024-02-21T06:08:13;93542.94;;;1.22;100.00
9738;BME280;4908;47.446;13.900;2024-02-21T06:10:40;93522.97;;;1.38;100.00
9738;BME280;4908;47.446;13.900;2024-02-21T06:13:07;93529.97;;;1.42;100.00
9738;BME280;4908;47.446;13.900;2024-02-21T06:15:35;93529.16;;;1.33;100.00
9738;BME280;4908;47.446;13.900;2024-02-21T06:18:02;93533.91;;;1.23;100.00
9738;BME280;4908;47.446;13.900;2024-02-21T06:20:29;93534.88;;;1.27;100.00
9738;BME280;4908;47.446;13.900;2024-02-21T06:22:56;93529.47;;;1.32;100.00
9738;BME280;4908;47.446;13.900;2024-02-21T06:25:25;93529.16;;;1.33;100.00
9738;BME280;4908;47.446;13.900;2024-02-21T06:27:52;93523.28;;;1.36;100.00
9738;BME280;4908;47.446;13.900;2024-02-21T06:30:19;93523.16;;;1.41;100.00
9738;BME280;4908;47.446;13.900;2024-02-21T06:32:46;93523.94;;;1.42;100.00
9738;BME280;4908;47.446;13.900;2024-02-21T06:35:13;93516.94;;;1.46;100.00
9738;BME280;4908;47.446;13.900;2024-02-21T06:37:40;93513.22;;;1.47;100.00
9738;BME280;4908;47.446;13.900;2024-02-21T06:40:07;93510.28;;;1.48;100.00
9738;BME280;4908;47.446;13.900;2024-02-21T06:42:36;93514.16;;;1.51;100.00
9738;BME280;4908;47.446;13.900;2024-02-21T06:45:04;93520.03;;;1.48;100.00
9738;BME280;4908;47.446;13.900;2024-02-21T06:47:31;93512.31;;;1.51;100.00
9738;BME280;4908;47.446;13.900;2024-02-21T06:49:58;93520.88;;;1.57;100.00
9738;BME280;4908;47.446;13.900;2024-02-21T06:52:26;93506.44;;;1.63;100.00
9738;BME280;4908;47.446;13.900;2024-02-21T06:54:53;93510.50;;;1.69;100.00
9738;BME280;4908;47.446;13.900;2024-02-21T06:57:20;93512.97;;;1.74;100.00
9738;BME280;4908;47.446;13.900;2024-02-21T06:59:48;93514.06;;;1.81;100.00
9738;BME280;4908;47.446;13.900;2024-02-21T07:02:16;93504.59;;;1.72;100.00
9738;BME280;4908;47.446;13.900;2024-02-21T07:04:43;93507.88;;;1.86;100.00
9738;BME280;4908;47.446;13.900;2024-02-21T07:07:12;93501.84;;;2.03;100.00
9738;BME280;4908;47.446;13.900;2024-02-21T07:09:39;93506.19;;;1.90;100.00
9738;BME280;4908;47.446;13.900;2024-02-21T07:12:07;93506.03;;;1.95;100.00
9738;BME280;4908;47.446;13.900;2024-02-21T07:14:35;93501.03;;;2.02;100.00
9738;BME280;4908;47.446;13.900;2024-02-21T07:17:04;93513.19;;;2.12;100.00
9738;BME280;4908;47.446;13.900;2024-02-21T07:19:31;93504.31;;;2.16;100.00
9738;BME280;4908;47.446;13.900;2024-02-21T07:22:00;93501.38;;;2.26;100.00
9738;BME280;4908;47.446;13.900;2024-02-21T07:24:27;93502.78;;;2.41;100.00
9738;BME280;4908;47.446;13.900;2024-02-21T07:26:54;93510.88;;;2.44;100.00
9738;BME280;4908;47.446;13.900;2024-02-21T07:29:21;93520.19;;;2.42;100.00
9738;BME280;4908;47.446;13.900;2024-02-21T07:31:51;93524.69;;;2.41;100.00
9738;BME280;4908;47.446;13.900;2024-02-21T07:34:20;93509.28;;;2.43;100.00
9738;BME280;4908;47.446;13.900;2024-02-21T07:36:47;93515.22;;;2.40;100.00
9738;BME280;4908;47.446;13.900;2024-02-21T07:39:14;93515.19;;;2.57;100.00
9738;BME280;4908;47.446;13.900;2024-02-21T07:41:42;93511.13;;;2.68;100.00
9738;BME280;4908;47.446;13.900;2024-02-21T07:44:10;93511.59;;;2.70;100.00
9738;BME280;4908;47.446;13.900;2024-02-21T07:46:37;93506.31;;;2.70;100.00
9738;BME280;4908;47.446;13.900;2024-02-21T07:49:04;93508.63;;;2.81;100.00
9738;BME280;4908;47.446;13.900;2024-02-21T07:51:33;93500.69;;;2.72;100.00
9738;BME280;4908;47.446;13.900;2024-02-21T07:54:01;93501.19;;;2.65;100.00
9738;BME280;4908;47.446;13.900;2024-02-21T07:56:31;93486.25;;;2.69;100.00
9738;BME280;4908;47.446;13.900;2024-02-21T07:58:58;93501.47;;;2.72;100.00
9738;BME280;4908;47.446;13.900;2024-02-21T08:01:25;93500.97;;;2.88;100.00
9738;BME280;4908;47.446;13.900;2024-02-21T08:03:52;93494.28;;;2.99;100.00
9738;BME280;4908;47.446;13.900;2024-02-21T08:06:19;93482.09;;;3.06;100.00
9738;BME280;4908;47.446;13.900;2024-02-21T08:08:48;93488.84;;;3.33;100.00
9738;BME280;4908;47.446;13.900;2024-02-21T08:11:15;93485.28;;;3.29;100.00
9738;BME280;4908;47.446;13.900;2024-02-21T08:13:42;93483.88;;;3.31;100.00
9738;BME280;4908;47.446;13.900;2024-02-21T08:16:09;93485.06;;;3.42;100.00
9738;BME280;4908;47.446;13.900;2024-02-21T08:18:36;93485.56;;;3.36;100.00
9738;BME280;4908;47.446;13.900;2024-02-21T08:21:04;93484.75;;;3.44;100.00
9738;BME280;4908;47.446;13.900;2024-02-21T08:23:32;93475.00;;;3.36;100.00
9738;BME280;4908;47.446;13.900;2024-02-21T08:26:02;93476.72;;;3.61;100.00
9738;BME280;4908;47.446;13.900;2024-02-21T08:28:30;93466.53;;;3.72;100.00
9738;BME280;4908;47.446;13.900;2024-02-21T08:30:57;93471.69;;;3.68;100.00
9738;BME280;4908;47.446;13.900;2024-02-21T08:33:24;93477.44;;;3.70;100.00
9738;BME280;4908;47.446;13.900;2024-02-21T08:35:51;93476.97;;;3.97;100.00
9738;BME280;4908;47.446;13.900;2024-02-21T08:38:18;93467.22;;;4.10;100.00
9738;BME280;4908;47.446;13.900;2024-02-21T08:40:45;93463.66;;;4.26;100.00
9738;BME280;4908;47.446;13.900;2024-02-21T08:43:13;93454.91;;;4.46;100.00
9738;BME280;4908;47.446;13.900;2024-02-21T08:45:41;93447.41;;;4.61;100.00
9738;BME280;4908;47.446;13.900;2024-02-21T08:48:07;93444.56;;;4.66;100.00
9738;BME280;4908;47.446;13.900;2024-02-21T08:50:35;93438.59;;;4.69;100.00
9738;BME280;4908;47.446;13.900;2024-02-21T08:53:02;93433.78;;;4.83;100.00
9738;BME280;4908;47.446;13.900;2024-02-21T08:55:29;93432.97;;;4.58;100.00
9738;BME280;4908;47.446;13.900;2024-02-21T08:57:56;93431.50;;;4.61;100.00
9738;BME280;4908;47.446;13.900;2024-02-21T09:00:24;93424.44;;;4.65;100.00
9738;BME280;4908;47.446;13.900;2024-02-21T09:02:52;93417.66;;;5.00;100.00
9738;BME280;4908;47.446;13.900;2024-02-21T09:05:21;93412.72;;;5.10;100.00
9738;BME280;4908;47.446;13.900;2024-02-21T09:07:48;93408.31;;;5.26;100.00
9738;BME280;4908;47.446;13.900;2024-02-21T09:10:15;93405.84;;;5.45;100.00
9738;BME280;4908;47.446;13.900;2024-02-21T09:12:42;93413.59;;;5.63;100.00
9738;BME280;4908;47.446;13.900;2024-02-21T09:15:10;93414.00;;;5.77;100.00
9738;BME280;4908;47.446;13.900;2024-02-21T09:17:38;93409.25;;;5.82;100.00
9738;BME280;4908;47.446;13.900;2024-02-21T09:20:07;93404.91;;;6.02;100.00
9738;BME280;4908;47.446;13.900;2024-02-21T09:22:37;93388.38;;;6.08;100.00
9738;BME280;4908;47.446;13.900;2024-02-21T09:25:06;93386.34;;;6.17;100.00
9738;BME280;4908;47.446;13.900;2024-02-21T09:27:33;93397.56;;;6.11;100.00
9738;BME280;4908;47.446;13.900;2024-02-21T09:30:00;93389.41;;;6.04;100.00
9738;BME280;4908;47.446;13.900;2024-02-21T09:32:29;93391.66;;;6.17;100.00
9738;BME280;4908;47.446;13.900;2024-02-21T09:34:59;93384.78;;;6.16;100.00
9738;BME280;4908;47.446;13.900;2024-02-21T09:37:26;93387.72;;;6.11;100.00
9738;BME280;4908;47.446;13.900;2024-02-21T09:39:53;93383.25;;;6.15;100.00
9738;BME280;4908;47.446;13.900;2024-02-21T09:42:21;93374.06;;;6.41;100.00
9738;BME280;4908;47.446;13.900;2024-02-21T09:44:48;93367.38;;;6.47;100.00
9738;BME280;4908;47.446;13.900;2024-02-21T09:47:21;93362.78;;;6.75;100.00
9738;BME280;4908;47.446;13.900;2024-02-21T09:49:49;93359.47;;;6.93;94.70
9738;BME280;4908;47.446;13.900;2024-02-21T09:52:19;93349.53;;;7.25;86.54
9738;BME280;4908;47.446;13.900;2024-02-21T09:54:47;93353.13;;;7.33;83.96
9738;BME280;4908;47.446;13.900;2024-02-21T09:57:15;93342.75;;;7.28;73.45
9738;BME280;4908;47.446;13.900;2024-02-21T09:59:43;93347.56;;;7.38;75.66
9738;BME280;4908;47.446;13.900;2024-02-21T10:02:11;93338.22;;;7.63;70.12
9738;BME280;4908;47.446;13.900;2024-02-21T10:04:39;93343.94;;;7.80;77.75
9738;BME280;4908;47.446;13.900;2024-02-21T10:07:07;93333.28;;;7.80;86.45
9738;BME280;4908;47.446;13.900;2024-02-21T10:09:36;93328.06;;;7.87;89.94
9738;BME280;4908;47.446;13.900;2024-02-21T10:12:10;93323.88;;;7.86;86.41
9738;BME280;4908;47.446;13.900;2024-02-21T10:14:37;93319.81;;;7.92;84.74
9738;BME280;4908;47.446;13.900;2024-02-21T10:17:04;93318.84;;;8.00;91.19
9738;BME280;4908;47.446;13.900;2024-02-21T10:19:35;93323.88;;;8.05;94.73
9738;BME280;4908;47.446;13.900;2024-02-21T10:22:03;93309.34;;;8.03;96.29
9738;BME280;4908;47.446;13.900;2024-02-21T10:24:31;93299.31;;;8.15;94.65
9738;BME280;4908;47.446;13.900;2024-02-21T10:27:06;93292.41;;;8.34;91.44
9738;BME280;4908;47.446;13.900;2024-02-21T10:29:34;93285.88;;;8.50;85.23
9738;BME280;4908;47.446;13.900;2024-02-21T10:32:08;93286.81;;;8.61;83.51
9738;BME280;4908;47.446;13.900;2024-02-21T10:34:37;93287.91;;;8.79;69.35
9738;BME280;4908;47.446;13.900;2024-02-21T10:37:05;93285.09;;;8.95;62.62
9738;BME280;4908;47.446;13.900;2024-02-21T10:39:33;93274.28;;;8.88;61.67
9738;BME280;4908;47.446;13.900;2024-02-21T10:42:01;93270.41;;;9.08;62.12
9738;BME280;4908;47.446;13.900;2024-02-21T10:44:31;93266.03;;;8.96;65.97
9738;BME280;4908;47.446;13.900;2024-02-21T10:46:59;93260.22;;;9.17;61.39
9738;BME280;4908;47.446;13.900;2024-02-21T10:49:26;93255.72;;;9.21;65.40
9738;BME280;4908;47.446;13.900;2024-02-21T10:51:59;93248.25;;;9.34;63.17
9738;BME280;4908;47.446;13.900;2024-02-21T10:54:41;93239.47;;;9.33;62.67
9738;BME280;4908;47.446;13.900;2024-02-21T10:57:10;93231.19;;;9.42;60.06
9738;BME280;4908;47.446;13.900;2024-02-21T10:59:41;93230.66;;;9.59;60.75
9738;BME280;4908;47.446;13.900;2024-02-21T11:02:09;93230.28;;;9.93;58.17
9738;BME280;4908;47.446;13.900;2024-02-21T11:04:37;93224.56;;;9.95;61.99
9738;BME280;4908;47.446;13.900;2024-02-21T11:07:05;93219.66;;;10.34;53.14
9738;BME280;4908;47.446;13.900;2024-02-21T11:09:33;93214.03;;;10.46;52.71
9738;BME280;4908;47.446;13.900;2024-02-21T11:12:03;93206.03;;;10.49;55.27
9738;BME280;4908;47.446;13.900;2024-02-21T11:14:31;93201.63;;;10.71;53.94
9738;BME280;4908;47.446;13.900;2024-02-21T11:17:02;93203.59;;;10.77;53.84
9738;BME280;4908;47.446;13.900;2024-02-21T11:19:30;93195.59;;;10.81;55.37
9738;BME280;4908;47.446;13.900;2024-02-21T11:21:58;93189.97;;;10.97;49.44
9738;BME280;4908;47.446;13.900;2024-02-21T11:24:27;93172.94;;;10.71;47.37
9738;BME280;4908;47.446;13.900;2024-02-21T11:26:55;93177.34;;;11.01;47.02
9738;BME280;4908;47.446;13.900;2024-02-21T11:29:25;93178.25;;;10.21;47.39
9738;BME280;4908;47.446;13.900;2024-02-21T11:31:54;93174.34;;;10.15;47.36
9738;BME280;4908;47.446;13.900;2024-02-21T11:34:23;93164.16;;;10.27;46.72
9738;BME280;4908;47.446;13.900;2024-02-21T11:36:51;93161.53;;;10.78;49.20
9738;BME280;4908;47.446;13.900;2024-02-21T11:39:19;93153.75;;;11.20;46.75
9738;BME280;4908;47.446;13.900;2024-02-21T11:41:47;93150.47;;;11.62;43.80
9738;BME280;4908;47.446;13.900;2024-02-21T11:44:14;93140.25;;;11.96;43.06
9738;BME280;4908;47.446;13.900;2024-02-21T11:46:41;93143.38;;;12.19;43.93
9738;BME280;4908;47.446;13.900;2024-02-21T11:49:09;93130.34;;;12.56;43.70
9738;BME280;4908;47.446;13.900;2024-02-21T11:51:38;93134.19;;;12.83;41.87
9738;BME280;4908;47.446;13.900;2024-02-21T11:54:06;93120.31;;;13.16;41.16
9738;BME280;4908;47.446;13.900;2024-02-21T11:56:34;93111.09;;;13.24;39.65
9738;BME280;4908;47.446;13.900;2024-02-21T11:59:01;93106.34;;;13.57;40.45
9738;BME280;4908;47.446;13.900;2024-02-21T12:01:29;93108.44;;;14.04;40.12
9738;BME280;4908;47.446;13.900;2024-02-21T12:03:56;93105.16;;;14.37;38.21
9738;BME280;4908;47.446;13.900;2024-02-21T12:06:23;93102.03;;;14.42;38.28
9738;BME280;4908;47.446;13.900;2024-02-21T12:08:51;93093.44;;;14.58;38.99
9738;BME280;4908;47.446;13.900;2024-02-21T12:11:20;93096.00;;;14.75;38.90
9738;BME280;4908;47.446;13.900;2024-02-21T12:13:58;93086.00;;;15.13;37.59
9738;BME280;4908;47.446;13.900;2024-02-21T12:16:27;93081.53;;;14.99;35.77
9738;BME280;4908;47.446;13.900;2024-02-21T12:18:54;93088.09;;;15.32;37.30
9738;BME280;4908;47.446;13.900;2024-02-21T12:21:24;93091.00;;;15.52;35.69
9738;BME280;4908;47.446;13.900;2024-02-21T12:23:55;93079.56;;;15.71;35.19
9738;BME280;4908;47.446;13.900;2024-02-21T12:26:23;93088.53;;;16.21;35.48
9738;BME280;4908;47.446;13.900;2024-02-21T12:28:50;93069.81;;;16.60;34.71
9738;BME280;4908;47.446;13.900;2024-02-21T12:31:19;93068.63;;;17.08;34.04
9738;BME280;4908;47.446;13.900;2024-02-21T12:33:47;93065.13;;;17.50;32.59
9738;BME280;4908;47.446;13.900;2024-02-21T12:36:15;93055.03;;;18.41;32.30
9738;BME280;4908;47.446;13.900;2024-02-21T12:38:42;93059.94;;;18.95;31.56
9738;BME280;4908;47.446;13.900;2024-02-21T12:41:10;93052.25;;;18.77;29.78
9738;BME280;4908;47.446;13.900;2024-02-21T12:43:37;93048.56;;;19.16;30.51
9738;BME280;4908;47.446;13.900;2024-02-21T12:46:04;93049.66;;;19.88;30.03
9738;BME280;4908;47.446;13.900;2024-02-21T12:48:33;93051.22;;;20.14;30.29
9738;BME280;4908;47.446;13.900;2024-02-21T12:51:00;93043.50;;;20.88;29.11
9738;BME280;4908;47.446;13.900;2024-02-21T12:53:27;93028.16;;;21.72;27.09
9738;BME280;4908;47.446;13.900;2024-02-21T12:55:55;93024.22;;;23.50;24.64
9738;BME280;4908;47.446;13.900;2024-02-21T12:58:24;93021.56;;;24.10;23.57
9738;BME280;4908;47.446;13.900;2024-02-21T13:00:51;93018.25;;;25.74;22.58
9738;BME280;4908;47.446;13.900;2024-02-21T13:03:18;93008.78;;;27.32;21.03
9738;BME280;4908;47.446;13.900;2024-02-21T13:05:46;93011.69;;;28.41;19.32
9738;BME280;4908;47.446;13.900;2024-02-21T13:08:13;93010.03;;;27.77;18.49
9738;BME280;4908;47.446;13.900;2024-02-21T13:10:40;93003.53;;;27.55;19.63
9738;BME280;4908;47.446;13.900;2024-02-21T13:13:08;92998.56;;;28.04;18.60
9738;BME280;4908;47.446;13.900;2024-02-21T13:15:36;93002.56;;;27.17;19.63